MMZO/ZLO METAR and TAF weather

Enter ICAO airport designator
Station Type Date Time Source
MMZO METAR 2020/04/09 01:40 UTC NOAA

MMZO 090140Z 00000KT 10SM SCT200 26/21 A2992 RMK 8/004


Station Type Date Time Source
MMZO Decoded METAR 2020/04/09 01:40 UTC NOAA

Manzanillo International , Mexico (MMZO) 19-09N 104-34W
Apr 08, 2020 - 09:40 PM EDT / 2020.04.09 0140 UTC
Wind: Calm:0
Visibility: 10 mile(s):0
Sky conditions: partly cloudy
Temperature: 78 F (26 C)
Dew Point: 69 F (21 C)
Relative Humidity: 73%
Pressure (altimeter): 29.92 in. Hg (1013 hPa)
ob: MMZO 090140Z 00000KT 10SM SCT200 26/21 A2992 RMK 8/004
cycle: 1

Station Type Date Time Source
MMZO TAF 2020/04/09 06:59 UTC NOAA

TAF MMZO 090358Z 0906/1006 03005KT P6SM SCT250
FM091800 20010KT P6SM SCT250
FM100300 03005KT P6SM SCT250

Example: see airport list